CheckWX is a tool to help pilots better visualize weather data.  It is not intended as a substitute for an official pre-flight weather briefing.

01:21:51 UTC

DAAJ METAR
Djanet Inedbirene Airport
Djanet, Algeria
Current

22 mins ago

DAAJ 240100Z 01014KT CAVOK 17/01 Q1019
Observed
Mar-24 @ 01:00 UTC
Wind
  • 010° at 14 KTS
Visibility
10,000+ meters
Flight Rules
VFR
Cloud Levels
  • Clear skies
Temperature
17°C / 63°F
Dewpoint
C / 34°F
Humidity
34%
Altimeter
30.09" Hg
Pressure
1018.92 hPa
Previous

1 hour ago

DAAJ 240000Z 01011KT CAVOK 17/01 Q1019
Observed
Mar-24 @ 00:00 UTC
Wind
  • 010° at 11 KTS
Visibility
10,000+ meters
Flight Rules
VFR
Cloud Levels
  • Clear skies
Temperature
17°C / 63°F
Dewpoint
C / 34°F
Humidity
34%
Altimeter
30.09" Hg
Pressure
1018.92 hPa
Previous

2 hours ago

DAAJ 232300Z 01006KT CAVOK 17/01 Q1020
Observed
Mar-23 @ 23:00 UTC
Wind
  • 010° at 6 KTS
Visibility
10,000+ meters
Flight Rules
VFR
Cloud Levels
  • Clear skies
Temperature
17°C / 63°F
Dewpoint
C / 34°F
Humidity
34%
Altimeter
30.12" Hg
Pressure
1019.92 hPa